Thiruvananthapuram, India

4:36 AM IST on July 04, 2015 (GMT +0530)
Trivandrum | | Change Station
CLOSE
Current Station
Airport
Location: Thiruvananthapuram Airport,
Elevation: 13 ft
Nearby Weather Stations

Elev 13 ft 8.47 °N, 76.95 °E | Updated 26 minutes ago

Haze
Haze
79 °F
Feels Like 79 °F
N
5
Wind Variable Wind from WNW

Today
High -- | Low -- °F
--% Chance of Precip.
Yesterday
High -- | Low -- °F
Precip. -- in
6:08 AM 6:44 PM
Waning Gibbous, 95% visible
Pressure 29.83 in
Visibility 1.9 miles
Clouds Scattered Clouds 1500 ft
Dew Point 73 °F
Humidity 83%
Rainfall 0.00 in
Snow Depth Not available.
UV 0 out of 12
Pollen Not available.
Air Quality Not available.
Flu Activity Not available.
METAR VOTV 032240Z 30004KT 3000 HZ SCT015 26/23 Q1010 NOSIG

More Conditions Fewer Conditions

Pressure 29.83 in
Visibility 1.9 miles
Clouds Scattered Clouds 1500 ft
Dew Point 73 °F
Humidity 83%
Rainfall 0.00 in
Snow Depth Not available.
UV 0 out of 12
Pollen Not available.
Air Quality Not available.
Flu Activity Not available.
METAR VOTV 032240Z 30004KT 3000 HZ SCT015 26/23 Q1010 NOSIG

More Conditions Fewer Conditions

10-Day Weather Forecast

×

Almanac

Astronomy

Jul. 04, 2015 Rise Set
Actual Time
Civil Twilight
Nautical Twilight
Astronomical Twilight
Moon
Length of Visible Light
Length of Day
Tomorrow will be .
, % of the Moon is Illuminated

Today's Extremes

Country Highs Country Lows

Community

WunderPhotos

Upload Photos

1,834,818 photos uploaded!

WunderBlogs® & News

Nearby

Air Quality

  Air Quality AQ Index Pollutant
Not available.

Snow Depth

Station Depth Elevation

Earthquake Activity

City Distance Mag. Time & Date
Minimum magnitude displayed is 2.5.

Coastal Water Temperatures

Place Temperature

Stations

Nearby Weather Stations

Station Location Temp. Windchill Dew Point Humidity Wind Precip. Elev Updated Type